Aérodrome :
LOGIN :

S'inscrire | Disclaimer

   EN    FR    IT 

 










Légende :    VFR   VFR Marginal   IFR   IFR Intensif   IFR Très Intensif
Visi : 
Plafond : 
>= 8 km
>= 3000ft
5 à 8 km
1000 à 3000 ft
1500m à 5 km
500 à 1000 ft
800 à 1500m
200 à 500 ft
< 800m
< 200 ft
Symboles :   Orages  Brouillard  Fortes neiges  Fortes précipitations  Vent > 20 kt
SIGMETs :   Divers  Orages  Givrage  Turbulence  Onde Orograph.  Cendres Volcan.






- Altitude de l'aérodrome : 1299 ft


EDTY - Adolf Würth

DERNIER METAR :
  • 280450Z 29006KT 250V310 9999 FEW009 BKN022 BKN033 12/10 Q1024

METARs EXPIRÉS :
  • 280420Z AUTO 29006KT 9999 // SCT010/// BKN018/// BKN022/// 12/11 Q1024
  • 280350Z AUTO 28006KT 9999 // FEW008/// BKN010/// OVC013/// 12/11 Q1024
  • 280320Z AUTO 29005KT 9999 // FEW009/// SCT015/// OVC029/// 12/11 Q1024
  • 280250Z AUTO 28007KT 9999 // BKN008/// BKN010/// OVC014/// 12/11 Q1024
  • 280220Z AUTO 27009KT 9999 // BKN008/// OVC037/// 13/12 Q1024
  • 280150Z AUTO 28006KT 250V330 7000 // FEW008/// BKN010/// OVC033/// 13/12 Q1023

Prévision TAF périmée.



MET'MAP, la Météo Aéronautique d'un coup d'oeil ! - Copyright ORBIFLY Décembre 2007 - Disclaimer

ORBIFLY MET'MAP TEAM :

Programmation & Développement : Alexandra Zaïnal
Sur une idée originale de : Baudouin d'Aumeries
Assistance à la programmation : Marc-Olivier Méhu
Soutien technique & logistique : Manuel Goepfert

Contact : metmap@orbifly.com




SOURCES & CREDITS :

   NOAA